sensor_id;sensor_type;location;lat;lon;timestamp;P1;durP1;ratioP1;P2;durP2;ratioP2
19609;SDS011;9952;47.122;-1.638;2022-10-17T00:02:21;17.67;;;6.90;;
19609;SDS011;9952;47.122;-1.638;2022-10-17T00:07:02;13.40;;;6.37;;
19609;SDS011;9952;47.122;-1.638;2022-10-17T00:11:43;20.57;;;7.20;;
19609;SDS011;9952;47.122;-1.638;2022-10-17T00:16:25;14.27;;;7.13;;
19609;SDS011;9952;47.122;-1.638;2022-10-17T00:21:16;14.23;;;7.03;;
19609;SDS011;9952;47.122;-1.638;2022-10-17T00:26:03;11.87;;;7.03;;
19609;SDS011;9952;47.122;-1.638;2022-10-17T00:30:45;18.87;;;6.83;;
19609;SDS011;9952;47.122;-1.638;2022-10-17T00:35:33;10.83;;;6.83;;
19609;SDS011;9952;47.122;-1.638;2022-10-17T00:40:14;16.17;;;6.30;;
19609;SDS011;9952;47.122;-1.638;2022-10-17T00:45:06;15.43;;;6.20;;
19609;SDS011;9952;47.122;-1.638;2022-10-17T00:49:58;13.40;;;6.10;;
19609;SDS011;9952;47.122;-1.638;2022-10-17T00:54:42;16.90;;;6.07;;
19609;SDS011;9952;47.122;-1.638;2022-10-17T00:59:26;17.30;;;7.93;;
19609;SDS011;9952;47.122;-1.638;2022-10-17T01:04:08;14.10;;;7.60;;
19609;SDS011;9952;47.122;-1.638;2022-10-17T01:08:49;17.33;;;7.87;;
19609;SDS011;9952;47.122;-1.638;2022-10-17T01:13:41;14.93;;;7.43;;
19609;SDS011;9952;47.122;-1.638;2022-10-17T01:34:12;21.07;;;8.60;;
19609;SDS011;9952;47.122;-1.638;2022-10-17T01:43:58;15.73;;;7.77;;
19609;SDS011;9952;47.122;-1.638;2022-10-17T01:48:44;18.90;;;7.47;;
19609;SDS011;9952;47.122;-1.638;2022-10-17T01:53:29;16.27;;;8.10;;
19609;SDS011;9952;47.122;-1.638;2022-10-17T01:58:21;15.97;;;8.20;;
19609;SDS011;9952;47.122;-1.638;2022-10-17T02:03:04;16.03;;;7.47;;
19609;SDS011;9952;47.122;-1.638;2022-10-17T02:07:47;14.90;;;7.00;;
19609;SDS011;9952;47.122;-1.638;2022-10-17T02:12:34;12.73;;;7.50;;
19609;SDS011;9952;47.122;-1.638;2022-10-17T02:17:26;14.60;;;7.80;;
19609;SDS011;9952;47.122;-1.638;2022-10-17T02:27:12;14.07;;;7.23;;
19609;SDS011;9952;47.122;-1.638;2022-10-17T02:32:08;11.07;;;6.63;;
19609;SDS011;9952;47.122;-1.638;2022-10-17T02:37:00;14.50;;;6.87;;
19609;SDS011;9952;47.122;-1.638;2022-10-17T02:41:44;15.80;;;8.67;;
19609;SDS011;9952;47.122;-1.638;2022-10-17T02:46:28;12.70;;;7.37;;
19609;SDS011;9952;47.122;-1.638;2022-10-17T02:51:18;13.93;;;7.63;;
19609;SDS011;9952;47.122;-1.638;2022-10-17T02:56:41;13.00;;;7.33;;
19609;SDS011;9952;47.122;-1.638;2022-10-17T03:01:34;11.17;;;6.77;;
19609;SDS011;9952;47.122;-1.638;2022-10-17T03:06:16;11.23;;;7.30;;
19609;SDS011;9952;47.122;-1.638;2022-10-17T03:10:57;10.00;;;6.80;;
19609;SDS011;9952;47.122;-1.638;2022-10-17T03:15:38;11.57;;;6.73;;
19609;SDS011;9952;47.122;-1.638;2022-10-17T03:20:18;14.43;;;7.27;;
19609;SDS011;9952;47.122;-1.638;2022-10-17T03:24:59;17.17;;;7.20;;
19609;SDS011;9952;47.122;-1.638;2022-10-17T03:29:40;14.83;;;7.57;;
19609;SDS011;9952;47.122;-1.638;2022-10-17T03:34:21;12.47;;;6.40;;
19609;SDS011;9952;47.122;-1.638;2022-10-17T03:39:02;13.70;;;6.07;;
19609;SDS011;9952;47.122;-1.638;2022-10-17T03:43:43;11.50;;;6.10;;
19609;SDS011;9952;47.122;-1.638;2022-10-17T03:48:24;14.37;;;6.20;;
19609;SDS011;9952;47.122;-1.638;2022-10-17T03:53:06;14.33;;;5.20;;
19609;SDS011;9952;47.122;-1.638;2022-10-17T03:57:46;11.00;;;5.27;;
19609;SDS011;9952;47.122;-1.638;2022-10-17T04:02:27;9.60;;;5.60;;
19609;SDS011;9952;47.122;-1.638;2022-10-17T04:07:08;11.57;;;5.20;;
19609;SDS011;9952;47.122;-1.638;2022-10-17T04:11:49;11.40;;;5.37;;
19609;SDS011;9952;47.122;-1.638;2022-10-17T04:16:29;12.87;;;4.80;;
19609;SDS011;9952;47.122;-1.638;2022-10-17T04:21:11;14.60;;;5.00;;
19609;SDS011;9952;47.122;-1.638;2022-10-17T04:25:56;11.17;;;4.90;;
19609;SDS011;9952;47.122;-1.638;2022-10-17T04:30:37;11.87;;;4.53;;
19609;SDS011;9952;47.122;-1.638;2022-10-17T04:35:19;13.97;;;4.00;;
19609;SDS011;9952;47.122;-1.638;2022-10-17T04:40:00;12.70;;;4.83;;
19609;SDS011;9952;47.122;-1.638;2022-10-17T04:44:40;7.97;;;4.00;;
19609;SDS011;9952;47.122;-1.638;2022-10-17T04:49:21;11.53;;;4.23;;
19609;SDS011;9952;47.122;-1.638;2022-10-17T04:54:02;12.87;;;3.63;;
19609;SDS011;9952;47.122;-1.638;2022-10-17T04:58:43;13.07;;;4.30;;
19609;SDS011;9952;47.122;-1.638;2022-10-17T05:03:26;6.67;;;3.73;;
19609;SDS011;9952;47.122;-1.638;2022-10-17T05:08:07;9.53;;;3.70;;
19609;SDS011;9952;47.122;-1.638;2022-10-17T05:12:49;8.77;;;3.63;;
19609;SDS011;9952;47.122;-1.638;2022-10-17T05:17:30;11.47;;;3.63;;
19609;SDS011;9952;47.122;-1.638;2022-10-17T05:22:11;10.53;;;3.40;;
19609;SDS011;9952;47.122;-1.638;2022-10-17T05:26:52;11.67;;;3.57;;
19609;SDS011;9952;47.122;-1.638;2022-10-17T05:31:32;8.33;;;3.00;;
19609;SDS011;9952;47.122;-1.638;2022-10-17T05:36:14;9.67;;;3.20;;
19609;SDS011;9952;47.122;-1.638;2022-10-17T05:40:56;7.63;;;2.50;;
19609;SDS011;9952;47.122;-1.638;2022-10-17T05:45:37;12.07;;;3.23;;
19609;SDS011;9952;47.122;-1.638;2022-10-17T05:50:18;7.20;;;2.83;;
19609;SDS011;9952;47.122;-1.638;2022-10-17T05:55:01;10.23;;;2.90;;
19609;SDS011;9952;47.122;-1.638;2022-10-17T05:59:43;9.00;;;2.50;;
19609;SDS011;9952;47.122;-1.638;2022-10-17T06:04:23;9.60;;;2.77;;
19609;SDS011;9952;47.122;-1.638;2022-10-17T06:09:07;7.20;;;2.70;;
19609;SDS011;9952;47.122;-1.638;2022-10-17T06:13:48;5.83;;;2.30;;
19609;SDS011;9952;47.122;-1.638;2022-10-17T06:18:28;8.30;;;2.80;;
19609;SDS011;9952;47.122;-1.638;2022-10-17T06:23:09;6.73;;;2.33;;
19609;SDS011;9952;47.122;-1.638;2022-10-17T06:27:50;9.87;;;2.50;;
19609;SDS011;9952;47.122;-1.638;2022-10-17T06:32:31;7.67;;;2.23;;
19609;SDS011;9952;47.122;-1.638;2022-10-17T06:37:12;7.83;;;2.37;;
19609;SDS011;9952;47.122;-1.638;2022-10-17T06:41:53;9.03;;;2.27;;
19609;SDS011;9952;47.122;-1.638;2022-10-17T11:32:16;4.87;;;1.00;;
19609;SDS011;9952;47.122;-1.638;2022-10-17T11:48:38;5.97;;;1.00;;
19609;SDS011;9952;47.122;-1.638;2022-10-17T11:53:25;4.33;;;1.10;;
19609;SDS011;9952;47.122;-1.638;2022-10-17T12:08:32;5.40;;;1.27;;
19609;SDS011;9952;47.122;-1.638;2022-10-17T12:18:30;5.40;;;1.40;;
19609;SDS011;9952;47.122;-1.638;2022-10-17T12:23:34;3.53;;;1.40;;
19609;SDS011;9952;47.122;-1.638;2022-10-17T12:28:31;2.73;;;1.47;;
19609;SDS011;9952;47.122;-1.638;2022-10-17T12:33:34;4.07;;;1.50;;
19609;SDS011;9952;47.122;-1.638;2022-10-17T12:38:27;2.37;;;1.20;;
19609;SDS011;9952;47.122;-1.638;2022-10-17T13:17:28;8.57;;;2.73;;
19609;SDS011;9952;47.122;-1.638;2022-10-17T13:22:31;10.60;;;2.50;;
19609;SDS011;9952;47.122;-1.638;2022-10-17T13:32:40;7.37;;;2.53;;
19609;SDS011;9952;47.122;-1.638;2022-10-17T13:38:24;9.93;;;2.30;;
19609;SDS011;9952;47.122;-1.638;2022-10-17T13:43:33;9.03;;;2.50;;
19609;SDS011;9952;47.122;-1.638;2022-10-17T13:48:22;10.93;;;3.00;;
19609;SDS011;9952;47.122;-1.638;2022-10-17T13:53:38;11.27;;;3.13;;
19609;SDS011;9952;47.122;-1.638;2022-10-17T14:04:28;5.33;;;2.70;;
19609;SDS011;9952;47.122;-1.638;2022-10-17T14:09:22;11.90;;;2.73;;
19609;SDS011;9952;47.122;-1.638;2022-10-17T14:14:15;12.60;;;3.37;;
19609;SDS011;9952;47.122;-1.638;2022-10-17T14:18:58;10.63;;;2.87;;
19609;SDS011;9952;47.122;-1.638;2022-10-17T14:23:41;7.77;;;2.97;;
19609;SDS011;9952;47.122;-1.638;2022-10-17T14:28:23;10.43;;;3.43;;
19609;SDS011;9952;47.122;-1.638;2022-10-17T14:33:06;13.27;;;3.70;;
19609;SDS011;9952;47.122;-1.638;2022-10-17T14:37:56;10.87;;;3.07;;
19609;SDS011;9952;47.122;-1.638;2022-10-17T14:42:39;10.40;;;3.60;;
19609;SDS011;9952;47.122;-1.638;2022-10-17T14:47:21;12.00;;;3.80;;
19609;SDS011;9952;47.122;-1.638;2022-10-17T14:52:09;14.03;;;3.63;;
19609;SDS011;9952;47.122;-1.638;2022-10-17T14:57:07;9.77;;;3.13;;
19609;SDS011;9952;47.122;-1.638;2022-10-17T15:01:58;12.00;;;3.90;;
19609;SDS011;9952;47.122;-1.638;2022-10-17T15:06:39;15.83;;;4.07;;
19609;SDS011;9952;47.122;-1.638;2022-10-17T15:11:20;10.73;;;3.70;;
19609;SDS011;9952;47.122;-1.638;2022-10-17T15:16:01;10.40;;;3.33;;
19609;SDS011;9952;47.122;-1.638;2022-10-17T15:20:45;10.57;;;2.53;;
19609;SDS011;9952;47.122;-1.638;2022-10-17T15:25:27;5.90;;;1.80;;
19609;SDS011;9952;47.122;-1.638;2022-10-17T15:30:15;5.90;;;1.50;;
19609;SDS011;9952;47.122;-1.638;2022-10-17T15:35:01;5.70;;;2.13;;
19609;SDS011;9952;47.122;-1.638;2022-10-17T15:39:42;9.07;;;2.63;;
19609;SDS011;9952;47.122;-1.638;2022-10-17T15:44:24;12.00;;;2.63;;
19609;SDS011;9952;47.122;-1.638;2022-10-17T15:49:06;7.40;;;2.50;;
19609;SDS011;9952;47.122;-1.638;2022-10-17T15:53:53;10.90;;;3.00;;
19609;SDS011;9952;47.122;-1.638;2022-10-17T16:08:57;3.73;;;1.80;;
19609;SDS011;9952;47.122;-1.638;2022-10-17T16:13:38;5.83;;;2.43;;
19609;SDS011;9952;47.122;-1.638;2022-10-17T16:18:20;6.43;;;1.80;;
19609;SDS011;9952;47.122;-1.638;2022-10-17T16:23:01;5.43;;;1.70;;
19609;SDS011;9952;47.122;-1.638;2022-10-17T16:27:44;5.50;;;1.50;;
19609;SDS011;9952;47.122;-1.638;2022-10-17T16:32:26;5.67;;;1.40;;
19609;SDS011;9952;47.122;-1.638;2022-10-17T16:37:07;5.33;;;1.60;;
19609;SDS011;9952;47.122;-1.638;2022-10-17T16:41:47;7.60;;;2.40;;
19609;SDS011;9952;47.122;-1.638;2022-10-17T16:46:29;5.20;;;1.70;;
19609;SDS011;9952;47.122;-1.638;2022-10-17T16:51:11;5.60;;;1.97;;
19609;SDS011;9952;47.122;-1.638;2022-10-17T16:56:00;4.87;;;1.53;;
19609;SDS011;9952;47.122;-1.638;2022-10-17T17:00:42;6.53;;;1.77;;
19609;SDS011;9952;47.122;-1.638;2022-10-17T17:05:22;3.97;;;1.70;;
19609;SDS011;9952;47.122;-1.638;2022-10-17T17:10:03;3.17;;;1.77;;
19609;SDS011;9952;47.122;-1.638;2022-10-17T17:14:45;7.30;;;1.73;;
19609;SDS011;9952;47.122;-1.638;2022-10-17T17:19:25;5.03;;;1.40;;
19609;SDS011;9952;47.122;-1.638;2022-10-17T17:24:06;9.50;;;1.57;;
19609;SDS011;9952;47.122;-1.638;2022-10-17T17:28:47;7.40;;;1.90;;
19609;SDS011;9952;47.122;-1.638;2022-10-17T17:33:29;6.73;;;1.80;;
19609;SDS011;9952;47.122;-1.638;2022-10-17T17:38:10;6.33;;;1.70;;
19609;SDS011;9952;47.122;-1.638;2022-10-17T17:42:50;4.93;;;1.70;;
19609;SDS011;9952;47.122;-1.638;2022-10-17T17:47:31;5.40;;;1.90;;
19609;SDS011;9952;47.122;-1.638;2022-10-17T17:52:12;9.67;;;3.27;;
19609;SDS011;9952;47.122;-1.638;2022-10-17T17:56:53;7.77;;;2.73;;
19609;SDS011;9952;47.122;-1.638;2022-10-17T18:01:34;5.27;;;2.30;;
19609;SDS011;9952;47.122;-1.638;2022-10-17T18:06:17;6.53;;;3.00;;
19609;SDS011;9952;47.122;-1.638;2022-10-17T18:10:59;5.37;;;2.57;;
19609;SDS011;9952;47.122;-1.638;2022-10-17T18:15:41;8.63;;;2.63;;
19609;SDS011;9952;47.122;-1.638;2022-10-17T18:20:22;5.40;;;2.80;;
19609;SDS011;9952;47.122;-1.638;2022-10-17T18:25:04;6.20;;;2.67;;
19609;SDS011;9952;47.122;-1.638;2022-10-17T18:29:45;7.57;;;4.47;;
19609;SDS011;9952;47.122;-1.638;2022-10-17T18:34:26;9.93;;;3.80;;
19609;SDS011;9952;47.122;-1.638;2022-10-17T18:39:07;15.20;;;3.70;;
19609;SDS011;9952;47.122;-1.638;2022-10-17T18:43:49;6.83;;;3.10;;
19609;SDS011;9952;47.122;-1.638;2022-10-17T18:48:33;9.10;;;3.40;;
19609;SDS011;9952;47.122;-1.638;2022-10-17T18:53:14;6.57;;;3.43;;
19609;SDS011;9952;47.122;-1.638;2022-10-17T18:57:55;12.70;;;4.93;;
19609;SDS011;9952;47.122;-1.638;2022-10-17T19:02:36;13.07;;;5.17;;
19609;SDS011;9952;47.122;-1.638;2022-10-17T19:07:16;9.93;;;5.10;;
19609;SDS011;9952;47.122;-1.638;2022-10-17T19:11:59;9.67;;;5.37;;
19609;SDS011;9952;47.122;-1.638;2022-10-17T19:16:41;10.27;;;5.03;;
19609;SDS011;9952;47.122;-1.638;2022-10-17T19:21:25;13.23;;;5.17;;
19609;SDS011;9952;47.122;-1.638;2022-10-17T19:26:09;7.37;;;4.03;;
19609;SDS011;9952;47.122;-1.638;2022-10-17T19:30:51;11.53;;;4.10;;
19609;SDS011;9952;47.122;-1.638;2022-10-17T19:35:32;11.47;;;4.70;;
19609;SDS011;9952;47.122;-1.638;2022-10-17T19:40:13;8.87;;;4.37;;
19609;SDS011;9952;47.122;-1.638;2022-10-17T19:44:54;9.80;;;4.53;;
19609;SDS011;9952;47.122;-1.638;2022-10-17T19:49:35;8.67;;;3.87;;
19609;SDS011;9952;47.122;-1.638;2022-10-17T19:54:16;7.77;;;4.30;;
19609;SDS011;9952;47.122;-1.638;2022-10-17T19:58:59;11.63;;;5.03;;
19609;SDS011;9952;47.122;-1.638;2022-10-17T20:03:40;6.07;;;4.33;;
19609;SDS011;9952;47.122;-1.638;2022-10-17T20:08:21;5.53;;;3.90;;
19609;SDS011;9952;47.122;-1.638;2022-10-17T20:13:02;5.70;;;3.77;;
19609;SDS011;9952;47.122;-1.638;2022-10-17T20:17:42;7.87;;;4.07;;
19609;SDS011;9952;47.122;-1.638;2022-10-17T20:22:23;11.47;;;5.33;;
19609;SDS011;9952;47.122;-1.638;2022-10-17T20:27:04;11.67;;;4.83;;
19609;SDS011;9952;47.122;-1.638;2022-10-17T20:31:45;9.50;;;5.00;;
19609;SDS011;9952;47.122;-1.638;2022-10-17T20:36:27;10.33;;;4.43;;
19609;SDS011;9952;47.122;-1.638;2022-10-17T20:41:08;8.37;;;4.83;;
19609;SDS011;9952;47.122;-1.638;2022-10-17T20:45:49;8.53;;;4.40;;
19609;SDS011;9952;47.122;-1.638;2022-10-17T20:50:34;11.50;;;5.17;;
19609;SDS011;9952;47.122;-1.638;2022-10-17T20:55:18;7.70;;;4.57;;
19609;SDS011;9952;47.122;-1.638;2022-10-17T20:59:59;7.77;;;4.77;;
19609;SDS011;9952;47.122;-1.638;2022-10-17T21:04:40;6.97;;;4.17;;
19609;SDS011;9952;47.122;-1.638;2022-10-17T21:09:21;7.53;;;4.70;;
19609;SDS011;9952;47.122;-1.638;2022-10-17T21:14:02;7.50;;;4.50;;
19609;SDS011;9952;47.122;-1.638;2022-10-17T21:18:44;10.77;;;5.10;;
19609;SDS011;9952;47.122;-1.638;2022-10-17T21:23:26;11.60;;;4.83;;
19609;SDS011;9952;47.122;-1.638;2022-10-17T21:28:07;8.43;;;4.80;;
19609;SDS011;9952;47.122;-1.638;2022-10-17T21:32:51;9.67;;;5.37;;
19609;SDS011;9952;47.122;-1.638;2022-10-17T21:37:32;12.83;;;5.80;;
19609;SDS011;9952;47.122;-1.638;2022-10-17T21:42:13;7.13;;;5.00;;
19609;SDS011;9952;47.122;-1.638;2022-10-17T21:46:54;9.03;;;4.93;;
19609;SDS011;9952;47.122;-1.638;2022-10-17T21:51:35;6.93;;;4.50;;
19609;SDS011;9952;47.122;-1.638;2022-10-17T21:56:17;13.50;;;5.20;;
19609;SDS011;9952;47.122;-1.638;2022-10-17T22:05:49;16.10;;;7.07;;
19609;SDS011;9952;47.122;-1.638;2022-10-17T22:10:36;11.80;;;6.83;;
19609;SDS011;9952;47.122;-1.638;2022-10-17T22:15:18;10.13;;;6.30;;
19609;SDS011;9952;47.122;-1.638;2022-10-17T22:19:59;15.23;;;7.50;;
19609;SDS011;9952;47.122;-1.638;2022-10-17T22:24:39;20.57;;;7.30;;
19609;SDS011;9952;47.122;-1.638;2022-10-17T22:29:20;18.17;;;7.23;;
19609;SDS011;9952;47.122;-1.638;2022-10-17T22:34:01;16.70;;;7.60;;
19609;SDS011;9952;47.122;-1.638;2022-10-17T22:38:43;11.47;;;7.37;;
19609;SDS011;9952;47.122;-1.638;2022-10-17T22:43:24;9.07;;;7.03;;
19609;SDS011;9952;47.122;-1.638;2022-10-17T22:48:05;15.37;;;6.80;;
19609;SDS011;9952;47.122;-1.638;2022-10-17T22:52:46;15.80;;;7.60;;
19609;SDS011;9952;47.122;-1.638;2022-10-17T22:57:27;14.20;;;7.67;;
19609;SDS011;9952;47.122;-1.638;2022-10-17T23:02:08;22.57;;;7.43;;
19609;SDS011;9952;47.122;-1.638;2022-10-17T23:06:49;16.33;;;7.23;;
19609;SDS011;9952;47.122;-1.638;2022-10-17T23:11:29;13.30;;;7.10;;
19609;SDS011;9952;47.122;-1.638;2022-10-17T23:16:10;15.83;;;6.97;;
19609;SDS011;9952;47.122;-1.638;2022-10-17T23:20:51;15.10;;;7.67;;
19609;SDS011;9952;47.122;-1.638;2022-10-17T23:25:32;11.13;;;7.60;;
19609;SDS011;9952;47.122;-1.638;2022-10-17T23:30:14;9.67;;;7.37;;
19609;SDS011;9952;47.122;-1.638;2022-10-17T23:34:55;11.67;;;7.07;;
19609;SDS011;9952;47.122;-1.638;2022-10-17T23:39:35;15.97;;;7.93;;
19609;SDS011;9952;47.122;-1.638;2022-10-17T23:44:16;14.80;;;8.00;;
19609;SDS011;9952;47.122;-1.638;2022-10-17T23:48:58;25.97;;;8.67;;
19609;SDS011;9952;47.122;-1.638;2022-10-17T23:53:39;29.17;;;9.40;;
19609;SDS011;9952;47.122;-1.638;2022-10-17T23:58:20;14.47;;;8.73;;
